Time;durP1;ratioP1;P1;durP2;ratioP2;P2;SDS_P1;SDS_P2;PMS_P1;PMS_P2;Temp;Humidity;BMP_temperature;BMP_pressure;BME280_temperature;BME280_humidity;BME280_pressure;Samples;Min_cycle;Max_cycle;Signal;HPM_P1;HPM_P2
2021/01/11 00:01:51;;;;;;;4.63;3.20;;;-5.90;99.90;;;-5.20;100.00;98838.44;5000449;28;20471;-83
2021/01/11 00:04:19;;;;;;;6.50;3.63;;;-5.80;99.90;;;-5.25;100.00;98822.56;5005782;28;20492;-84
2021/01/11 00:06:47;;;;;;;6.50;4.50;;;-6.00;99.90;;;-5.24;100.00;98820.84;4998744;28;20469;-84
2021/01/11 00:09:15;;;;;;;3.57;3.17;;;-6.00;99.90;;;-5.37;100.00;98815.47;4997555;28;20477;-84
2021/01/11 00:11:42;;;;;;;5.60;3.63;;;-6.00;99.90;;;-5.47;100.00;98818.50;5000859;28;20940;-84
2021/01/11 00:14:10;;;;;;;5.53;3.40;;;-6.20;99.90;;;-5.48;100.00;98816.84;4999503;28;20478;-84
2021/01/11 00:16:37;;;;;;;9.50;3.60;;;-6.30;99.90;;;-5.53;100.00;98817.06;4999884;28;20482;-83
2021/01/11 00:19:05;;;;;;;9.97;2.77;;;-6.20;99.90;;;-5.59;100.00;98823.22;5001640;28;20482;-83
2021/01/11 00:21:33;;;;;;;6.00;3.77;;;-6.30;99.90;;;-5.51;100.00;98822.06;5002875;28;20463;-84
2021/01/11 00:24:01;;;;;;;4.50;3.67;;;-6.20;99.90;;;-5.46;100.00;98815.88;5002048;28;20477;-83
2021/01/11 00:26:29;;;;;;;6.50;3.07;;;-6.20;99.90;;;-5.55;100.00;98818.03;5002044;28;20463;-84
2021/01/11 00:28:57;;;;;;;9.30;3.27;;;-6.30;99.90;;;-5.59;100.00;98818.13;5003288;28;20980;-84
2021/01/11 00:31:26;;;;;;;6.80;4.20;;;-6.30;99.90;;;-5.62;100.00;98817.44;5003667;28;20511;-84
2021/01/11 00:33:53;;;;;;;8.47;4.27;;;-6.40;99.90;;;-5.62;100.00;98815.72;5000892;28;20454;-84
2021/01/11 00:36:22;;;;;;;4.60;3.60;;;-6.40;99.90;;;-5.68;100.00;98808.38;5002153;28;20444;-84
2021/01/11 00:38:50;;;;;;;6.33;4.00;;;-6.40;99.90;;;-5.65;100.00;98807.41;5001437;28;20461;-83
2021/01/11 00:41:23;;;;;;;6.67;3.53;;;-6.40;99.90;;;-5.71;100.00;98803.41;5003260;28;20531;-83
2021/01/11 00:43:51;;;;;;;7.20;3.97;;;-6.50;99.90;;;-5.69;100.00;98801.63;5003104;28;20478;-84
2021/01/11 00:46:22;;;;;;;10.60;4.77;;;-6.50;99.90;;;-5.59;100.00;98812.25;5002436;28;20449;-84
2021/01/11 00:48:51;;;;;;;5.20;3.80;;;-6.30;99.90;;;-5.52;100.00;98810.25;5002708;28;20576;-83
2021/01/11 00:51:18;;;;;;;6.07;3.60;;;-6.20;99.90;;;-5.70;100.00;98804.25;5003506;28;20466;-84
2021/01/11 00:53:46;;;;;;;6.53;3.90;;;-6.50;99.90;;;-5.61;100.00;98807.19;5003233;28;20452;-83
2021/01/11 00:56:15;;;;;;;6.90;3.80;;;-6.30;99.90;;;-5.53;100.00;98808.59;5001922;28;20457;-84
2021/01/11 00:58:44;;;;;;;9.50;3.83;;;-6.30;99.90;;;-5.59;100.00;98817.34;5003074;28;20949;-84
2021/01/11 01:01:13;;;;;;;5.60;3.37;;;-6.30;99.90;;;-5.49;100.00;98815.19;4998442;28;20461;-84
2021/01/11 01:03:41;;;;;;;7.20;3.60;;;-6.20;99.90;;;-5.51;100.00;98819.50;5003676;28;20486;-84
2021/01/11 01:06:11;;;;;;;6.70;3.30;;;-6.20;99.90;;;-5.53;100.00;98822.16;5003114;28;20991;-84
2021/01/11 01:08:40;;;;;;;5.43;3.27;;;-6.20;99.90;;;-5.46;100.00;98825.25;5000097;28;20506;-83
2021/01/11 01:11:10;;;;;;;5.97;3.50;;;-6.10;99.90;;;-5.48;100.00;98837.25;5003482;28;20876;-84
2021/01/11 01:13:38;;;;;;;8.10;4.00;;;-6.10;99.90;;;-5.39;100.00;98835.09;5001563;28;20997;-83
2021/01/11 01:16:07;;;;;;;5.83;3.27;;;-6.00;99.90;;;-5.38;100.00;98838.47;5000237;28;20456;-83
2021/01/11 01:18:35;;;;;;;4.97;3.53;;;-6.00;99.90;;;-5.49;100.00;98844.03;5002034;28;20906;-84
2021/01/11 01:21:08;;;;;;;6.57;3.70;;;-6.10;99.90;;;-5.57;100.00;98842.72;5000788;28;21024;-84
2021/01/11 01:23:37;;;;;;;9.03;3.63;;;-6.30;99.90;;;-5.74;100.00;98846.00;5000987;28;20476;-84
2021/01/11 01:26:05;;;;;;;5.77;3.60;;;-6.50;99.90;;;-5.76;100.00;98853.69;5000240;28;20869;-84
2021/01/11 01:28:32;;;;;;;6.03;3.70;;;-6.50;99.90;;;-5.74;100.00;98846.00;5002550;28;20504;-84
2021/01/11 01:31:01;;;;;;;4.40;3.00;;;-6.40;99.90;;;-5.79;100.00;98842.81;5001102;28;20537;-83
2021/01/11 01:33:29;;;;;;;4.80;3.00;;;-6.40;99.90;;;-5.76;100.00;98842.72;5002392;28;20444;-83
2021/01/11 01:35:57;;;;;;;6.63;2.77;;;-6.60;99.90;;;-5.78;100.00;98840.22;5002626;28;20446;-84
2021/01/11 01:38:25;;;;;;;6.17;4.03;;;-6.50;99.90;;;-5.85;100.00;98846.47;5002353;28;20520;-83
2021/01/11 01:40:53;;;;;;;3.70;2.97;;;-6.50;99.90;;;-5.81;100.00;98855.63;5002643;28;20542;-83
2021/01/11 01:43:20;;;;;;;5.27;4.00;;;-6.50;99.90;;;-5.85;100.00;98859.19;4999804;28;20468;-83
2021/01/11 01:45:48;;;;;;;8.10;2.83;;;-6.60;99.90;;;-5.80;100.00;98861.56;5001623;28;20468;-84
2021/01/11 01:48:17;;;;;;;5.30;3.27;;;-6.60;99.90;;;-5.90;100.00;98863.69;4996212;28;20502;-84
2021/01/11 01:50:45;;;;;;;6.20;3.07;;;-6.70;99.90;;;-5.90;100.00;98871.31;5002411;28;20462;-84
2021/01/11 01:53:13;;;;;;;5.40;3.70;;;-6.60;99.90;;;-5.83;100.00;98874.41;5002158;28;20452;-84
2021/01/11 01:55:42;;;;;;;7.50;3.70;;;-6.60;99.90;;;-5.86;100.00;98872.84;5001225;28;20504;-84
2021/01/11 01:58:11;;;;;;;7.10;3.77;;;-6.60;99.90;;;-5.89;100.00;98869.59;5001822;28;20502;-84
2021/01/11 02:00:38;;;;;;;12.93;3.60;;;-6.60;99.90;;;-5.88;100.00;98868.72;5002033;28;20979;-83
2021/01/11 02:03:06;;;;;;;4.33;3.40;;;-6.50;99.90;;;-5.97;100.00;98864.81;5001177;28;20474;-84
2021/01/11 02:05:34;;;;;;;5.60;3.60;;;-6.60;99.90;;;-5.83;100.00;98857.41;4998328;28;20446;-84
2021/01/11 02:08:17;;;;;;;3.33;3.03;;;-6.60;99.90;;;-5.81;100.00;98844.63;5000953;28;20560;-83
2021/01/11 02:10:55;;;;;;;4.63;2.70;;;-6.50;99.90;;;-5.90;100.00;98845.06;5002274;28;20476;-84
2021/01/11 02:13:45;;;;;;;6.93;3.67;;;-6.60;99.90;;;-5.96;100.00;98846.13;5000322;28;20476;-84
2021/01/11 02:16:22;;;;;;;4.40;3.17;;;-6.70;99.90;;;-5.89;100.00;98842.44;5000738;28;20466;-84
2021/01/11 02:19:00;;;;;;;6.13;3.47;;;-6.50;99.90;;;-5.91;100.00;98839.13;4998895;28;20556;-83
2021/01/11 02:22:16;;;;;;;4.43;2.90;;;-6.70;99.90;;;-6.06;100.00;98837.22;5000447;28;20469;-83
2021/01/11 02:25:26;;;;;;;3.33;2.47;;;-6.80;99.90;;;-5.97;100.00;98831.75;5001686;28;20442;-84
2021/01/11 02:27:57;;;;;;;3.93;3.00;;;-6.70;99.90;;;-6.12;100.00;98824.78;5000986;28;20894;-84
2021/01/11 02:30:37;;;;;;;4.63;3.20;;;-6.90;99.90;;;-6.07;100.00;98822.84;4999406;28;20468;-83
2021/01/11 02:33:08;;;;;;;4.30;3.30;;;-6.80;99.90;;;-5.95;100.00;98816.41;4999638;28;20208;-84
2021/01/11 02:36:02;;;;;;;3.53;2.63;;;-6.70;99.90;;;-6.00;100.00;98811.50;5001258;28;20840;-83
2021/01/11 02:38:30;;;;;;;3.70;2.67;;;-6.70;99.90;;;-6.07;100.00;98807.56;5000081;28;20488;-83
2021/01/11 02:40:58;;;;;;;3.07;2.60;;;-6.80;99.90;;;-6.05;100.00;98822.78;5000196;28;20457;-84
2021/01/11 02:43:26;;;;;;;5.50;3.03;;;-6.80;99.90;;;-6.06;100.00;98818.59;5001465;28;20456;-84
2021/01/11 02:45:55;;;;;;;5.10;2.77;;;-6.70;99.90;;;-5.98;100.00;98826.72;4999724;28;20457;-83
2021/01/11 02:48:25;;;;;;;3.50;3.20;;;-6.70;99.90;;;-5.98;100.00;98821.63;5001354;28;20509;-83
2021/01/11 02:51:07;;;;;;;2.97;2.33;;;-6.70;99.90;;;-6.03;100.00;98809.09;5001622;28;20469;-84
2021/01/11 02:53:48;;;;;;;5.30;2.80;;;-6.80;99.90;;;-5.99;100.00;98808.09;5000127;28;20471;-84
2021/01/11 02:56:29;;;;;;;5.23;2.77;;;-6.80;99.90;;;-5.95;100.00;98807.06;5000041;28;20527;-84
2021/01/11 02:59:19;;;;;;;4.00;2.27;;;-6.70;99.90;;;-6.04;100.00;98807.47;5001412;28;20470;-84
2021/01/11 03:01:54;;;;;;;3.60;2.63;;;-6.80;99.90;;;-5.99;100.00;98810.63;4997711;28;20858;-83
2021/01/11 03:04:25;;;;;;;5.07;2.93;;;-6.70;99.90;;;-5.92;100.00;98806.09;5001402;28;20455;-84
2021/01/11 03:06:59;;;;;;;4.50;2.60;;;-6.60;99.90;;;-6.00;100.00;98806.41;5000055;28;20455;-83
2021/01/11 03:09:27;;;;;;;3.93;2.80;;;-6.70;99.90;;;-6.07;100.00;98806.78;5001129;28;20588;-83
2021/01/11 03:11:56;;;;;;;4.00;2.70;;;-6.70;99.90;;;-6.08;100.00;98800.84;5000002;28;20445;-83
2021/01/11 03:14:24;;;;;;;3.63;2.97;;;-6.80;99.90;;;-6.11;100.00;98804.34;4999843;28;20480;-83
2021/01/11 03:16:53;;;;;;;3.30;2.43;;;-6.80;99.90;;;-6.13;100.00;98808.69;4999206;28;20476;-83
2021/01/11 03:19:22;;;;;;;6.33;3.30;;;-6.90;99.90;;;-6.17;100.00;98812.22;5001971;28;20426;-84
2021/01/11 03:21:49;;;;;;;2.33;1.77;;;-6.80;99.90;;;-6.16;100.00;98806.25;4998034;28;20458;-84
2021/01/11 03:24:21;;;;;;;4.60;2.73;;;-6.90;99.90;;;-6.16;100.00;98808.81;4999073;28;20521;-84
2021/01/11 03:26:50;;;;;;;5.43;2.80;;;-6.90;99.90;;;-6.15;100.00;98812.19;5001352;28;20431;-84
2021/01/11 03:29:19;;;;;;;4.18;2.85;;;-6.90;99.90;;;-6.22;100.00;98813.34;5000868;28;20512;-84
2021/01/11 03:31:48;;;;;;;4.50;2.33;;;-7.00;99.90;;;-6.23;100.00;98809.97;4999306;28;20206;-83
2021/01/11 03:34:16;;;;;;;9.07;2.87;;;-7.00;99.90;;;-6.11;100.00;98806.88;4999698;28;20308;-84
2021/01/11 03:36:46;;;;;;;4.60;3.13;;;-6.70;99.90;;;-6.05;100.00;98802.44;4999053;28;20514;-84
2021/01/11 03:39:14;;;;;;;5.17;3.43;;;-6.70;99.90;;;-6.05;100.00;98812.63;4999996;28;20511;-84
2021/01/11 03:41:46;;;;;;;4.30;3.10;;;-6.80;99.90;;;-6.14;100.00;98808.72;5001042;28;20474;-83
2021/01/11 03:44:14;;;;;;;4.68;2.90;;;-6.80;99.90;;;-6.28;100.00;98805.97;5000666;28;20474;-84
2021/01/11 03:46:42;;;;;;;3.97;2.47;;;-7.00;99.90;;;-6.33;100.00;98807.84;4998550;28;20209;-83
2021/01/11 03:49:09;;;;;;;3.35;2.25;;;-7.10;99.90;;;-6.25;100.00;98801.53;4998686;28;20505;-82
2021/01/11 03:51:38;;;;;;;2.35;2.15;;;-7.00;99.90;;;-6.19;100.00;98805.56;5000396;28;20585;-82
2021/01/11 03:54:05;;;;;;;3.88;2.45;;;-6.90;99.90;;;-6.03;100.00;98798.91;4998060;28;20613;-82
2021/01/11 03:56:33;;;;;;;4.20;2.50;;;-6.80;99.90;;;-5.93;100.00;98790.00;4998989;28;20208;-81
2021/01/11 03:59:00;;;;;;;5.87;3.40;;;-6.70;99.90;;;-5.91;100.00;98790.78;5000626;28;20456;-81
2021/01/11 04:01:28;;;;;;;4.87;2.37;;;-6.60;99.90;;;-5.85;100.00;98793.00;4998797;28;20478;-81
2021/01/11 04:03:56;;;;;;;4.80;2.92;;;-6.40;99.90;;;-5.89;100.00;98795.78;5000367;28;20476;-81
2021/01/11 04:06:24;;;;;;;3.90;2.93;;;-6.50;99.90;;;-5.95;100.00;98791.78;5000472;28;20210;-81
2021/01/11 04:08:52;;;;;;;5.10;2.87;;;-6.60;99.90;;;-5.94;100.00;98803.63;4997643;28;20508;-81
2021/01/11 04:11:21;;;;;;;3.53;2.95;;;-6.60;99.90;;;-5.91;100.00;98808.59;5000124;28;20542;-81
2021/01/11 04:13:49;;;;;;;4.20;2.90;;;-6.60;99.90;;;-5.82;100.00;98797.13;4999520;28;20213;-81
2021/01/11 04:16:17;;;;;;;4.20;2.57;;;-6.40;99.90;;;-5.86;100.00;98800.72;5000183;28;20265;-81
2021/01/11 04:18:45;;;;;;;4.30;2.37;;;-6.50;99.90;;;-5.87;100.00;98799.94;5000407;28;20509;-81
2021/01/11 04:21:13;;;;;;;5.83;2.60;;;-6.50;99.90;;;-5.93;100.00;98789.16;4999279;28;20453;-81
2021/01/11 04:23:41;;;;;;;2.47;2.23;;;-6.60;99.90;;;-5.92;100.00;98784.03;5000313;28;20433;-81
2021/01/11 04:26:10;;;;;;;2.57;2.30;;;-6.50;99.90;;;-5.89;100.00;98781.34;4998497;28;21194;-82
2021/01/11 04:28:38;;;;;;;3.15;2.33;;;-6.60;99.90;;;-5.89;100.00;98790.69;4999511;28;20914;-82
2021/01/11 04:31:06;;;;;;;3.30;2.27;;;-6.50;99.90;;;-5.89;100.00;98777.97;4998473;28;20208;-82
2021/01/11 04:33:34;;;;;;;4.50;2.37;;;-6.60;99.90;;;-5.84;100.00;98781.94;5000454;28;20455;-82
2021/01/11 04:36:02;;;;;;;3.27;2.33;;;-6.50;99.90;;;-5.89;100.00;98776.25;4997744;28;20531;-81
2021/01/11 04:38:29;;;;;;;4.57;2.40;;;-6.40;99.90;;;-5.86;100.00;98778.66;4999752;28;20440;-81
2021/01/11 04:41:02;;;;;;;5.60;2.40;;;-6.50;99.90;;;-5.83;100.00;98778.47;4998893;28;20449;-78
2021/01/11 04:43:36;;;;;;;4.15;2.90;;;-6.40;99.90;;;-5.83;100.00;98778.47;4999634;28;20490;-81
2021/01/11 04:46:04;;;;;;;2.20;2.00;;;-6.30;99.90;;;-5.86;100.00;98776.09;4997665;28;21074;-83
2021/01/11 04:48:31;;;;;;;3.67;2.00;;;-6.50;99.90;;;-5.91;100.00;98778.03;4996044;28;21099;-81
2021/01/11 04:51:01;;;;;;;5.53;3.10;;;-6.40;99.90;;;-5.89;100.00;98775.41;4999660;28;20447;-78
2021/01/11 04:53:28;;;;;;;2.90;2.40;;;-6.50;99.90;;;-5.88;100.00;98775.34;4999199;28;20497;-81
2021/01/11 04:56:00;;;;;;;3.47;2.20;;;-6.50;99.90;;;-5.93;100.00;98776.44;5000091;28;20465;-81
2021/01/11 04:58:54;;;;;;;3.17;2.13;;;-6.50;99.90;;;-5.92;100.00;98776.38;4997671;28;20441;-81
2021/01/11 05:01:25;;;;;;;6.60;3.00;;;-6.50;99.90;;;-5.91;100.00;98772.94;4999931;28;20439;-81
2021/01/11 05:03:58;;;;;;;3.40;1.97;;;-6.40;99.90;;;-5.86;100.00;98785.47;4998408;28;20980;-81
2021/01/11 05:06:26;;;;;;;4.20;2.80;;;-6.40;99.90;;;-5.92;100.00;98775.56;5002526;28;20490;-82
2021/01/11 05:09:03;;;;;;;3.42;2.40;;;-6.50;99.90;;;-5.92;100.00;98775.56;5009235;28;20494;-82
2021/01/11 05:11:31;;;;;;;4.13;2.60;;;-6.50;99.90;;;-5.88;100.00;98777.91;5004098;28;20676;-81
2021/01/11 05:13:59;;;;;;;2.93;2.20;;;-6.50;99.90;;;-5.93;100.00;98767.09;5002062;28;20527;-81
2021/01/11 05:16:27;;;;;;;4.13;2.53;;;-6.40;99.90;;;-5.91;100.00;98769.56;5002841;28;20451;-82
2021/01/11 05:19:00;;;;;;;2.90;2.50;;;-6.60;99.90;;;-5.94;100.00;98775.63;5004649;28;20480;-81
2021/01/11 05:21:41;;;;;;;2.90;2.60;;;-6.60;99.90;;;-5.99;100.00;98769.06;5000400;28;20464;-81
2021/01/11 05:24:36;;;;;;;5.00;2.88;;;-6.60;99.90;;;-6.06;100.00;98773.59;5002020;28;21008;-81
2021/01/11 05:27:07;;;;;;;3.07;2.20;;;-6.70;99.90;;;-6.08;100.00;98770.31;4998272;28;20575;-82
2021/01/11 05:29:37;;;;;;;2.67;2.30;;;-6.80;99.90;;;-6.06;100.00;98773.59;5001819;28;20488;-81
2021/01/11 05:32:08;;;;;;;1.83;1.63;;;-6.70;99.90;;;-5.99;100.00;98769.91;5002843;28;20436;-81
2021/01/11 05:34:50;;;;;;;2.60;2.40;;;-6.60;99.90;;;-6.04;100.00;98776.09;5001829;28;20452;-81
2021/01/11 05:37:35;;;;;;;5.20;2.80;;;-6.60;99.90;;;-6.05;100.00;98772.72;5002305;28;20452;-81
2021/01/11 05:40:08;;;;;;;4.23;2.30;;;-6.60;99.90;;;-6.04;100.00;98771.84;5002933;28;20475;-81
2021/01/11 05:42:36;;;;;;;4.82;2.65;;;-6.60;99.90;;;-6.11;100.00;98780.63;5002672;28;20448;-80
2021/01/11 05:45:16;;;;;;;2.78;2.45;;;-6.80;99.90;;;-6.12;100.00;98781.50;5001369;28;20224;-81
2021/01/11 05:48:09;;;;;;;6.53;2.90;;;-6.80;99.90;;;-6.11;100.00;98763.63;5000767;28;20209;-81
2021/01/11 05:50:39;;;;;;;2.75;2.40;;;-6.70;99.90;;;-6.02;100.00;98767.50;4986209;28;20476;-81
2021/01/11 05:53:17;;;;;;;2.77;2.07;;;-6.70;99.90;;;-6.13;100.00;98772.22;5002454;28;20211;-83
2021/01/11 05:55:45;;;;;;;3.67;2.07;;;-6.80;99.90;;;-6.19;100.00;98775.88;5002553;28;20447;-81
2021/01/11 05:58:13;;;;;;;3.10;2.40;;;-6.90;99.90;;;-6.13;100.00;98782.41;5000584;28;20522;-80
2021/01/11 06:00:42;;;;;;;5.63;2.23;;;-6.80;99.90;;;-6.06;100.00;98785.50;4999671;28;20470;-80
2021/01/11 06:03:12;;;;;;;2.40;1.80;;;-6.70;99.90;;;-6.07;100.00;98782.13;5000223;28;20959;-78
2021/01/11 06:05:40;;;;;;;2.83;2.20;;;-6.60;99.90;;;-6.01;100.00;98774.25;5001475;28;20496;-80
2021/01/11 06:08:10;;;;;;;4.33;2.20;;;-6.60;99.90;;;-5.99;100.00;98769.91;5001402;28;20444;-82
2021/01/11 06:10:39;;;;;;;3.00;2.10;;;-6.50;99.90;;;-6.09;100.00;98778.84;5001349;28;20469;-80
2021/01/11 06:13:11;;;;;;;2.67;2.30;;;-6.70;99.90;;;-6.08;100.00;98774.56;5002469;28;20452;-81
2021/01/11 06:15:42;;;;;;;4.80;2.80;;;-6.70;99.90;;;-6.04;100.00;98771.84;5000876;28;20459;-80
2021/01/11 06:18:14;;;;;;;3.63;2.77;;;-6.70;99.90;;;-6.16;100.00;98772.34;5001134;28;20458;-81
2021/01/11 06:20:46;;;;;;;3.60;2.75;;;-6.80;99.90;;;-6.27;100.00;98766.91;5002053;28;20444;-81
2021/01/11 06:23:26;;;;;;;2.53;2.33;;;-6.90;99.90;;;-6.36;100.00;98775.75;5000961;28;20220;-80
2021/01/11 06:25:56;;;;;;;6.57;2.83;;;-7.00;99.90;;;-6.38;100.00;98776.69;5000235;28;20466;-81
2021/01/11 06:28:32;;;;;;;4.93;2.40;;;-7.10;99.90;;;-6.49;100.00;98768.72;5000586;28;20667;-80
2021/01/11 06:31:14;;;;;;;5.00;2.27;;;-7.10;99.90;;;-6.49;100.00;98769.50;5000900;28;20462;-80
2021/01/11 06:33:42;;;;;;;4.80;3.30;;;-7.10;99.90;;;-6.51;100.00;98761.13;5001924;28;20450;-80
2021/01/11 06:36:26;;;;;;;4.43;2.20;;;-7.20;99.90;;;-6.52;100.00;98768.81;4997743;28;20435;-81
2021/01/11 06:38:54;;;;;;;4.35;2.90;;;-7.30;99.90;;;-6.47;100.00;98766.91;5001778;28;20914;-80
2021/01/11 06:41:28;;;;;;;4.33;3.17;;;-7.20;99.90;;;-6.49;100.00;98764.41;5002172;28;20213;-80
2021/01/11 06:44:06;;;;;;;5.00;3.03;;;-6.90;99.90;;;-6.60;100.00;98763.22;5001676;28;20973;-80
2021/01/11 06:46:45;;;;;;;2.85;2.40;;;-7.30;99.90;;;-6.59;100.00;98762.34;5001862;28;20463;-80
2021/01/11 06:49:30;;;;;;;3.53;2.30;;;-7.30;99.90;;;-6.56;100.00;98767.31;5001305;28;20236;-81
2021/01/11 06:52:07;;;;;;;4.53;3.00;;;-7.20;99.90;;;-6.54;100.00;98773.16;5000044;28;20469;-80
2021/01/11 06:54:43;;;;;;;3.33;2.90;;;-7.10;99.90;;;-6.59;100.00;98777.59;5000989;28;20220;-80
2021/01/11 06:57:24;;;;;;;5.03;3.20;;;-7.10;99.90;;;-6.63;100.00;98771.81;5000824;28;20471;-80
2021/01/11 07:00:05;;;;;;;3.93;2.63;;;-7.30;99.90;;;-6.65;100.00;98764.25;5001190;28;20214;-80
2021/01/11 07:02:42;;;;;;;5.22;2.90;;;-7.30;99.90;;;-6.64;100.00;98758.28;5001440;28;20809;-80
2021/01/11 07:05:51;;;;;;;2.97;2.10;;;-7.40;99.90;;;-6.70;100.00;98762.78;5001550;28;20669;-80
2021/01/11 07:08:21;;;;;;;2.67;2.45;;;-7.40;99.90;;;-6.67;100.00;98760.13;4999724;28;20221;-80
2021/01/11 07:11:04;;;;;;;6.68;2.70;;;-7.40;99.90;;;-6.75;100.00;98760.44;5001343;28;20222;-81
2021/01/11 07:13:32;;;;;;;3.08;2.22;;;-7.40;99.90;;;-6.74;100.00;98751.09;4999908;28;20224;-81
2021/01/11 07:16:19;;;;;;;2.83;2.53;;;-7.40;99.90;;;-6.71;100.00;98759.41;5000579;28;20242;-80
2021/01/11 07:18:53;;;;;;;2.50;2.03;;;-7.40;99.90;;;-6.65;100.00;98766.78;4998845;28;20451;-80
2021/01/11 07:21:25;;;;;;;3.72;2.10;;;-7.40;99.90;;;-6.66;100.00;98767.66;5000688;28;20669;-80
2021/01/11 07:23:55;;;;;;;2.35;2.15;;;-7.30;99.90;;;-6.73;100.00;98775.59;5001547;28;20266;-80
2021/01/11 07:26:27;;;;;;;4.03;2.67;;;-7.40;99.90;;;-6.66;100.00;98793.09;5001567;28;20220;-81
2021/01/11 07:29:01;;;;;;;3.37;2.43;;;-7.40;99.90;;;-6.68;100.00;98789.78;5000496;28;20257;-80
2021/01/11 07:31:32;;;;;;;2.87;2.67;;;-7.30;99.90;;;-6.71;100.00;98778.94;5000909;28;20446;-81
2021/01/11 07:34:06;;;;;;;4.85;2.45;;;-7.40;99.90;;;-6.70;100.00;98781.38;5000873;28;20437;-81
2021/01/11 07:36:40;;;;;;;3.20;2.15;;;-7.40;99.90;;;-6.68;100.00;98774.53;5000860;28;20211;-81
2021/01/11 07:39:17;;;;;;;3.70;3.10;;;-7.40;99.90;;;-6.65;100.00;98779.50;5001018;28;20577;-80
2021/01/11 07:41:48;;;;;;;2.65;2.45;;;-7.40;99.90;;;-6.67;100.00;98771.13;5000589;28;20224;-81
2021/01/11 07:44:22;;;;;;;4.38;2.95;;;-7.40;99.90;;;-6.68;100.00;98764.38;5001077;28;20232;-81
2021/01/11 07:46:58;;;;;;;4.57;2.33;;;-7.40;99.90;;;-6.56;100.00;98764.75;5001331;28;20692;-80
2021/01/11 07:49:29;;;;;;;3.25;2.45;;;-7.20;99.90;;;-6.59;100.00;98768.25;5000530;28;20295;-80
2021/01/11 07:52:04;;;;;;;2.73;2.50;;;-7.30;99.90;;;-6.52;100.00;98771.34;5000259;28;20209;-80
2021/01/11 07:54:32;;;;;;;2.30;2.10;;;-7.20;99.90;;;-6.52;100.00;98768.81;5000728;28;20459;-80
2021/01/11 07:57:00;;;;;;;4.93;2.85;;;-7.20;99.90;;;-6.47;100.00;98759.28;5000604;28;20430;-80
2021/01/11 07:59:27;;;;;;;4.97;3.13;;;-7.10;99.90;;;-6.48;100.00;98755.06;5000309;28;20270;-80
2021/01/11 08:01:56;;;;;;;2.50;2.20;;;-7.20;99.90;;;-6.38;100.00;98753.81;5000273;28;20878;-80
2021/01/11 08:04:24;;;;;;;6.40;2.87;;;-7.00;99.90;;;-6.31;100.00;98750.09;5000247;28;20475;-80
2021/01/11 08:06:58;;;;;;;6.00;3.27;;;-6.90;99.90;;;-6.25;100.00;98752.41;5000704;28;20453;-80
2021/01/11 08:09:28;;;;;;;4.67;2.47;;;-6.80;99.90;;;-6.25;100.00;98758.28;4998177;28;20499;-80
2021/01/11 08:12:08;;;;;;;6.97;3.13;;;-6.80;99.90;;;-6.20;100.00;98750.47;5000666;28;20469;-80
2021/01/11 08:14:36;;;;;;;5.10;3.17;;;-6.70;99.90;;;-6.17;100.00;98760.50;5000173;28;20522;-80
2021/01/11 08:17:07;;;;;;;4.40;2.90;;;-6.80;99.90;;;-6.11;100.00;98752.66;4995268;28;20454;-80
2021/01/11 08:19:35;;;;;;;2.87;2.50;;;-6.70;99.90;;;-6.10;100.00;98756.81;4999867;28;20459;-80
2021/01/11 08:22:04;;;;;;;4.20;3.38;;;-6.80;99.90;;;-6.06;100.00;98755.78;5000508;28;20449;-80
2021/01/11 08:24:31;;;;;;;4.07;3.37;;;-6.70;99.90;;;-6.01;100.00;98758.97;4999283;28;20212;-81
2021/01/11 08:27:06;;;;;;;3.50;2.65;;;-6.70;99.90;;;-6.03;100.00;98763.28;4999571;28;20474;-80
2021/01/11 08:29:39;;;;;;;3.80;3.17;;;-6.70;99.90;;;-6.03;100.00;98773.47;5000421;28;20298;-81
2021/01/11 08:32:10;;;;;;;4.90;3.45;;;-6.80;99.90;;;-5.95;100.00;98778.22;4997103;28;20546;-80
2021/01/11 08:34:40;;;;;;;6.40;3.90;;;-6.60;99.90;;;-5.91;100.00;98778.03;5000027;28;20218;-81
2021/01/11 08:37:33;;;;;;;8.07;3.53;;;-6.60;99.90;;;-5.79;100.00;98777.47;5000664;28;20451;-80
2021/01/11 08:40:04;;;;;;;4.43;3.40;;;-6.50;99.90;;;-5.70;100.00;98782.16;4995348;28;20963;-80
2021/01/11 08:42:34;;;;;;;5.00;3.40;;;-6.30;99.90;;;-5.67;100.00;98794.75;5004639;28;20448;-80
2021/01/11 08:45:25;;;;;;;5.07;3.10;;;-6.40;99.90;;;-5.68;100.00;98803.28;5003296;28;20450;-80
2021/01/11 08:48:00;;;;;;;3.80;3.23;;;-6.40;99.90;;;-5.62;100.00;98804.72;5003581;28;20444;-80
2021/01/11 08:50:29;;;;;;;5.50;3.20;;;-6.30;99.90;;;-5.52;100.00;98807.69;5003926;28;20562;-80
2021/01/11 08:52:58;;;;;;;6.37;3.40;;;-6.20;99.90;;;-5.49;100.00;98800.75;5003959;28;20457;-81
2021/01/11 08:55:26;;;;;;;5.60;3.13;;;-6.20;99.90;;;-5.43;100.00;98799.63;5004020;28;20435;-80
2021/01/11 08:57:58;;;;;;;6.20;4.17;;;-6.10;99.90;;;-5.35;100.00;98802.66;5003068;28;20546;-80
2021/01/11 09:00:26;;;;;;;4.77;3.40;;;-6.00;99.90;;;-5.32;100.00;98793.16;5004168;28;20472;-80
2021/01/11 09:02:54;;;;;;;4.23;2.90;;;-6.00;99.90;;;-5.25;100.00;98794.53;5003417;28;20426;-80
2021/01/11 09:05:24;;;;;;;6.47;3.57;;;-5.90;99.90;;;-5.24;100.00;98775.78;5002926;28;20481;-80
2021/01/11 09:07:52;;;;;;;4.87;3.03;;;-5.90;99.90;;;-5.19;100.00;98773.03;5003235;28;20970;-80
2021/01/11 09:10:24;;;;;;;4.43;3.20;;;-5.80;99.90;;;-5.09;100.00;98779.34;5003171;28;20992;-80
2021/01/11 09:12:53;;;;;;;4.27;3.23;;;-5.70;99.90;;;-4.98;100.00;98777.13;5000992;28;20537;-80
2021/01/11 09:15:26;;;;;;;7.50;4.30;;;-5.60;99.90;;;-4.92;100.00;98771.72;5003604;28;20433;-80
2021/01/11 09:18:06;;;;;;;9.33;4.80;;;-5.50;99.90;;;-4.85;100.00;98757.78;5003744;28;20454;-80
2021/01/11 09:20:38;;;;;;;3.93;3.00;;;-5.40;99.90;;;-4.78;100.00;98755.75;5002645;28;20462;-80
2021/01/11 09:23:06;;;;;;;5.53;3.33;;;-5.40;99.90;;;-4.76;100.00;98759.91;5003518;28;20444;-80
2021/01/11 09:25:35;;;;;;;7.73;3.50;;;-5.30;99.90;;;-4.73;100.00;98751.25;5003365;28;20481;-81
2021/01/11 09:28:06;;;;;;;6.73;3.70;;;-5.30;99.90;;;-4.77;100.00;98748.03;5003089;28;20484;-80
2021/01/11 09:30:36;;;;;;;7.73;4.20;;;-5.40;99.90;;;-4.68;100.00;98754.41;5002916;28;20501;-80
2021/01/11 09:33:05;;;;;;;12.80;4.60;;;-5.30;99.90;;;-4.63;100.00;98758.41;5003333;28;20459;-80
2021/01/11 09:35:33;;;;;;;7.30;3.30;;;-5.20;99.90;;;-4.62;100.00;98767.66;5003487;28;20516;-81
2021/01/11 09:38:00;;;;;;;6.43;3.97;;;-5.20;99.90;;;-4.58;100.00;98771.72;4997978;28;20523;-80
2021/01/11 09:40:28;;;;;;;4.27;3.00;;;-5.10;99.90;;;-4.53;100.00;98773.22;5001402;28;20592;-80
2021/01/11 09:42:57;;;;;;;6.90;3.90;;;-5.10;99.90;;;-4.49;100.00;98767.91;5002960;28;20451;-80
2021/01/11 09:45:25;;;;;;;6.20;3.63;;;-5.10;99.90;;;-4.42;100.00;98758.22;5003165;28;20599;-80
2021/01/11 09:47:53;;;;;;;8.73;4.03;;;-5.00;99.90;;;-4.38;100.00;98772.50;5002919;28;20577;-80
2021/01/11 09:50:21;;;;;;;5.30;3.40;;;-5.00;99.90;;;-4.32;100.00;98767.06;5002726;28;20533;-80
2021/01/11 09:52:49;;;;;;;6.17;4.23;;;-4.90;99.90;;;-4.30;100.00;98760.16;5001774;28;20451;-81
2021/01/11 09:55:17;;;;;;;6.90;3.63;;;-4.90;99.90;;;-4.26;100.00;98759.94;5001992;28;20452;-81
2021/01/11 09:57:44;;;;;;;5.93;4.30;;;-4.90;99.90;;;-4.18;100.00;98764.66;4998396;28;20530;-80
2021/01/11 10:00:16;;;;;;;7.90;4.60;;;-4.70;99.90;;;-4.14;100.00;98756.75;5001974;28;20464;-80
2021/01/11 10:02:48;;;;;;;7.50;3.83;;;-4.70;99.90;;;-4.06;100.00;98764.00;5001097;28;20454;-80
2021/01/11 10:05:17;;;;;;;6.37;3.60;;;-4.60;99.90;;;-4.02;100.00;98770.63;5002751;28;20466;-79
2021/01/11 10:07:46;;;;;;;8.37;4.00;;;-4.60;99.90;;;-3.95;100.00;98776.22;4998793;28;20431;-81
2021/01/11 10:10:14;;;;;;;9.57;3.93;;;-4.50;99.90;;;-3.91;100.00;98772.63;5002686;28;20601;-80
2021/01/11 10:12:42;;;;;;;8.17;4.43;;;-4.50;99.90;;;-3.85;100.00;98788.44;4999016;28;21051;-81
2021/01/11 10:15:13;;;;;;;6.67;4.63;;;-4.50;99.90;;;-3.79;100.00;98793.25;5002212;28;20463;-80
2021/01/11 10:17:40;;;;;;;9.13;4.33;;;-4.40;99.90;;;-3.76;100.00;98787.97;5001943;28;20815;-80
2021/01/11 10:20:10;;;;;;;7.60;3.90;;;-4.40;99.90;;;-3.70;100.00;98787.66;5001840;28;20942;-80
2021/01/11 10:22:38;;;;;;;6.73;3.87;;;-4.30;99.90;;;-3.66;100.00;98778.94;5002373;28;20456;-81
2021/01/11 10:25:08;;;;;;;5.83;4.37;;;-4.30;99.90;;;-3.63;100.00;98778.75;4996162;28;20509;-80
2021/01/11 10:27:36;;;;;;;9.10;4.47;;;-4.20;99.90;;;-3.55;100.00;98765.59;5002492;28;20451;-79
2021/01/11 10:30:05;;;;;;;5.97;4.20;;;-4.10;99.90;;;-3.50;100.00;98753.38;5001880;28;20491;-80
2021/01/11 10:32:34;;;;;;;6.33;3.97;;;-4.10;99.90;;;-3.44;100.00;98752.25;5001810;28;20787;-80